createdAt,value
2019-04-14T00:02:34.261Z,13.18
2019-04-14T00:05:06.132Z,11.93
2019-04-14T00:07:36.303Z,12.40
2019-04-14T00:10:07.184Z,12.30
2019-04-14T00:12:38.315Z,12.78
2019-04-14T00:15:21.130Z,12.35
2019-04-14T00:17:41.397Z,13.43
2019-04-14T00:20:11.864Z,14.00
2019-04-14T00:22:42.504Z,14.00
2019-04-14T00:25:12.997Z,13.78
2019-04-14T00:27:43.229Z,14.47
2019-04-14T00:30:14.340Z,14.15
2019-04-14T00:32:48.812Z,14.33
2019-04-14T00:35:36.427Z,15.15
2019-04-14T00:38:23.981Z,14.68
2019-04-14T00:41:02.907Z,14.15
2019-04-14T00:43:48.483Z,14.43
2019-04-14T00:46:23.197Z,13.38
2019-04-14T00:48:53.932Z,14.65
2019-04-14T00:51:24.499Z,14.43
2019-04-14T00:53:54.314Z,15.32
2019-04-14T00:56:25.543Z,14.38
2019-04-14T00:58:56.118Z,15.28
2019-04-14T01:01:26.489Z,14.47
2019-04-14T01:03:57.006Z,16.65
2019-04-14T01:06:27.316Z,16.05
2019-04-14T01:08:57.539Z,15.55
2019-04-14T01:11:27.133Z,16.95
2019-04-14T01:13:57.260Z,16.02
2019-04-14T01:16:28.055Z,16.15
2019-04-14T01:18:58.144Z,17.95
2019-04-14T01:21:28.551Z,16.02
2019-04-14T01:23:58.923Z,15.70
2019-04-14T01:26:29.205Z,15.05
2019-04-14T01:28:59.313Z,14.87
2019-04-14T01:31:29.580Z,15.05
2019-04-14T01:33:59.783Z,15.48
2019-04-14T01:36:29.883Z,14.23
2019-04-14T01:39:00.350Z,13.85
2019-04-14T01:41:30.429Z,13.88
2019-04-14T01:44:00.366Z,13.68
2019-04-14T01:46:32.615Z,13.83
2019-04-14T01:49:01.493Z,13.28
2019-04-14T01:51:46.357Z,14.45
2019-04-14T01:54:38.773Z,16.25
2019-04-14T01:57:29.045Z,17.42
2019-04-14T02:00:16.970Z,18.25
2019-04-14T02:02:46.575Z,19.02
2019-04-14T02:05:16.825Z,19.05
2019-04-14T02:07:47.254Z,21.30
2019-04-14T02:10:17.376Z,22.30
2019-04-14T02:12:47.407Z,22.20
2019-04-14T02:15:17.953Z,22.48
2019-04-14T02:17:48.159Z,21.52
2019-04-14T02:20:18.599Z,21.82
2019-04-14T02:22:48.449Z,22.05
2019-04-14T02:25:18.844Z,22.07
2019-04-14T02:28:07.438Z,22.48
2019-04-14T02:30:44.345Z,21.25
2019-04-14T02:33:40.316Z,21.90
2019-04-14T02:36:14.741Z,22.25
2019-04-14T02:38:49.036Z,23.27
2019-04-14T02:41:21.585Z,23.30
2019-04-14T02:46:10.035Z,22.30
2019-04-14T02:51:23.626Z,22.80
2019-04-14T02:53:49.865Z,21.57
2019-04-14T02:56:22.269Z,20.95
2019-04-14T02:58:55.192Z,19.48
2019-04-14T03:01:26.117Z,19.73
2019-04-14T03:03:49.457Z,20.75
2019-04-14T03:06:17.815Z,20.40
2019-04-14T03:08:59.011Z,20.05
2019-04-14T03:11:32.257Z,20.40
2019-04-14T03:14:00.819Z,22.25
2019-04-14T03:16:49.513Z,20.45
2019-04-14T03:19:27.231Z,22.27
2019-04-14T03:22:13.051Z,22.00
2019-04-14T03:24:46.560Z,21.62
2019-04-14T03:27:43.798Z,22.05
2019-04-14T03:33:32.475Z,21.75
2019-04-14T03:40:44.570Z,20.55
2019-04-14T03:43:10.007Z,20.02
2019-04-14T03:50:45.492Z,19.27
2019-04-14T03:53:17.523Z,20.60
2019-04-14T03:56:09.221Z,19.55
2019-04-14T04:01:06.143Z,20.02
2019-04-14T04:03:36.756Z,20.82
2019-04-14T04:06:07.570Z,21.77
2019-04-14T04:08:37.762Z,22.07
2019-04-14T04:11:08.328Z,21.42
2019-04-14T04:13:38.986Z,20.95
2019-04-14T04:16:22.685Z,20.60
2019-04-14T04:19:00.877Z,20.45
2019-04-14T04:21:36.415Z,20.48
2019-04-14T04:24:12.855Z,21.00
2019-04-14T04:27:02.578Z,20.08
2019-04-14T04:29:54.800Z,19.65
2019-04-14T04:32:46.901Z,19.62
2019-04-14T04:35:23.907Z,19.82
2019-04-14T04:37:58.415Z,21.10
2019-04-14T04:40:31.199Z,18.98
2019-04-14T04:43:01.525Z,19.00
2019-04-14T04:45:32.052Z,19.17
2019-04-14T04:48:02.397Z,19.75
2019-04-14T04:50:32.507Z,18.23
2019-04-14T04:53:02.682Z,19.37
2019-04-14T04:55:35.080Z,18.98
2019-04-14T04:58:05.636Z,18.48
2019-04-14T05:00:35.365Z,19.05
2019-04-14T05:03:05.748Z,18.10
2019-04-14T05:06:09.142Z,19.00
2019-04-14T05:08:41.315Z,18.27
2019-04-14T05:11:19.489Z,18.48
2019-04-14T05:13:49.532Z,19.37
2019-04-14T05:16:19.360Z,17.40
2019-04-14T05:18:49.251Z,18.73
2019-04-14T05:21:19.270Z,17.98
2019-04-14T05:23:49.508Z,18.27
2019-04-14T05:26:19.893Z,17.82
2019-04-14T05:28:50.622Z,18.00
2019-04-14T05:31:20.750Z,18.98
2019-04-14T05:33:51.190Z,18.50
2019-04-14T05:36:21.470Z,18.35
2019-04-14T05:38:51.806Z,17.73
2019-04-14T05:41:22.243Z,18.62
2019-04-14T05:43:57.070Z,18.15
2019-04-14T05:46:24.982Z,19.48
2019-04-14T05:48:55.776Z,17.62
2019-04-14T05:51:26.449Z,17.80
2019-04-14T05:53:56.692Z,18.80
2019-04-14T05:56:27.401Z,19.10
2019-04-14T05:58:57.980Z,18.73
2019-04-14T06:01:27.467Z,19.32
2019-04-14T06:03:57.954Z,19.52
2019-04-14T06:06:27.983Z,19.87
2019-04-14T06:08:58.149Z,19.62
2019-04-14T06:11:27.859Z,20.17
2019-04-14T06:13:57.631Z,19.37
2019-04-14T06:16:27.480Z,20.77
2019-04-14T06:18:57.313Z,19.87
2019-04-14T06:21:27.188Z,19.70
2019-04-14T06:23:56.783Z,19.12
2019-04-14T06:26:26.823Z,19.23
2019-04-14T06:28:56.527Z,18.37
2019-04-14T06:31:51.403Z,19.00
2019-04-14T06:34:26.179Z,18.37
2019-04-14T06:37:09.179Z,17.57
2019-04-14T06:39:41.985Z,17.62
2019-04-14T06:42:12.116Z,18.32
2019-04-14T06:44:41.905Z,16.95
2019-04-14T06:47:11.761Z,17.20
2019-04-14T06:49:48.830Z,16.85
2019-04-14T06:52:13.249Z,17.00
2019-04-14T06:54:42.925Z,16.82
2019-04-14T06:57:12.873Z,17.37
2019-04-14T06:59:42.939Z,15.98
2019-04-14T07:02:12.448Z,16.65
2019-04-14T07:04:42.256Z,16.85
2019-04-14T07:07:11.899Z,15.25
2019-04-14T07:09:41.895Z,15.55
2019-04-14T07:12:11.660Z,14.95
2019-04-14T07:14:41.307Z,15.40
2019-04-14T07:17:11.102Z,15.70
2019-04-14T07:19:40.721Z,15.35
2019-04-14T07:22:10.330Z,14.95
2019-04-14T07:24:40.305Z,15.38
2019-04-14T07:27:10.124Z,15.58
2019-04-14T07:29:46.095Z,16.17
2019-04-14T07:32:34.647Z,14.53
2019-04-14T07:35:14.277Z,14.80
2019-04-14T07:38:08.913Z,14.28
2019-04-14T07:40:51.175Z,13.75
2019-04-14T07:43:26.453Z,12.88
2019-04-14T07:46:02.877Z,12.15
2019-04-14T07:48:39.459Z,12.35
2019-04-14T07:51:19.519Z,12.05
2019-04-14T07:54:01.444Z,11.12
2019-04-14T07:56:50.153Z,10.38
2019-04-14T07:59:32.607Z,10.82
2019-04-14T08:02:21.254Z,10.25
2019-04-14T08:05:13.186Z,10.20
2019-04-14T08:07:43.483Z,9.53
2019-04-14T08:10:12.916Z,9.48
2019-04-14T08:12:42.459Z,8.65
2019-04-14T08:15:12.066Z,8.95
2019-04-14T08:17:43.633Z,8.93
2019-04-14T08:20:13.490Z,8.18
2019-04-14T08:22:43.015Z,7.90
2019-04-14T08:25:12.684Z,8.08
2019-04-14T08:27:42.823Z,8.10
2019-04-14T08:30:12.567Z,7.37
2019-04-14T08:32:42.443Z,6.70
2019-04-14T08:35:12.069Z,7.28
2019-04-14T08:37:41.841Z,7.03
2019-04-14T08:40:11.653Z,6.87
2019-04-14T08:43:09.724Z,5.95
2019-04-14T08:45:46.584Z,5.78
2019-04-14T08:48:29.530Z,5.97
2019-04-14T08:51:06.316Z,5.58
2019-04-14T08:53:41.671Z,5.42
2019-04-14T08:56:30.128Z,4.95
2019-04-14T08:59:20.231Z,5.60
2019-04-14T09:02:07.132Z,4.92
2019-04-14T09:04:54.589Z,4.30
2019-04-14T09:07:32.248Z,4.30
2019-04-14T09:10:08.548Z,4.45
2019-04-14T09:12:39.919Z,4.28
2019-04-14T09:15:09.998Z,4.37
2019-04-14T09:17:40.183Z,4.72
2019-04-14T09:20:09.942Z,4.30
2019-04-14T09:22:40.401Z,4.58
2019-04-14T09:25:10.338Z,4.28
2019-04-14T09:27:40.124Z,4.53
2019-04-14T09:30:10.159Z,4.83
2019-04-14T09:32:40.007Z,5.20
2019-04-14T09:35:10.819Z,4.45
2019-04-14T09:37:40.462Z,4.97
2019-04-14T09:40:10.355Z,4.85
2019-04-14T09:42:40.464Z,4.70
2019-04-14T09:45:09.909Z,4.80
2019-04-14T09:47:39.376Z,5.12
2019-04-14T09:50:11.750Z,5.58
2019-04-14T09:52:41.540Z,5.70
2019-04-14T09:55:11.455Z,5.17
2019-04-14T09:57:41.419Z,5.30
2019-04-14T10:00:14.458Z,5.17
2019-04-14T10:02:44.236Z,5.35
2019-04-14T10:05:13.968Z,5.22
2019-04-14T10:07:43.828Z,5.03
2019-04-14T10:10:13.588Z,5.03
2019-04-14T10:12:43.764Z,4.83
2019-04-14T10:15:13.472Z,4.62
2019-04-14T10:17:42.967Z,5.40
2019-04-14T10:20:13.210Z,5.40
2019-04-14T10:22:43.157Z,4.60
2019-04-14T10:25:12.965Z,4.72
2019-04-14T10:27:42.942Z,4.78
2019-04-14T10:30:12.386Z,4.30
2019-04-14T10:32:41.883Z,5.10
2019-04-14T10:35:11.801Z,4.90
2019-04-14T10:37:41.685Z,5.08
2019-04-14T10:40:13.139Z,4.85
2019-04-14T10:42:42.926Z,5.25
2019-04-14T10:45:12.570Z,4.30
2019-04-14T10:47:42.172Z,4.65
2019-04-14T10:50:12.142Z,4.28
2019-04-14T10:52:42.046Z,4.42
2019-04-14T10:55:11.649Z,4.37
2019-04-14T10:57:41.766Z,4.35
2019-04-14T11:00:14.422Z,4.45
2019-04-14T11:02:44.081Z,4.45
2019-04-14T11:05:14.052Z,4.62
2019-04-14T11:07:44.320Z,4.70
2019-04-14T11:10:13.970Z,3.90
2019-04-14T11:12:43.936Z,4.25
2019-04-14T11:15:15.528Z,4.28
2019-04-14T11:17:48.973Z,6.03
2019-04-14T11:20:18.980Z,4.45
2019-04-14T11:22:48.853Z,4.65
2019-04-14T11:25:18.792Z,4.35
2019-04-14T11:27:48.810Z,4.00
2019-04-14T11:30:20.741Z,4.25
2019-04-14T11:33:04.612Z,4.60
2019-04-14T11:35:41.054Z,4.28
2019-04-14T11:38:26.217Z,4.03
2019-04-14T11:41:00.956Z,4.33
2019-04-14T11:43:30.754Z,4.83
2019-04-14T11:46:03.454Z,4.72
2019-04-14T11:48:32.888Z,4.70
2019-04-14T11:51:02.734Z,4.50
2019-04-14T11:53:32.374Z,5.08
2019-04-14T11:56:02.254Z,5.08
2019-04-14T11:58:32.095Z,5.15
2019-04-14T12:01:26.594Z,5.00
2019-04-14T12:04:20.955Z,4.97
2019-04-14T12:07:04.956Z,4.40
2019-04-14T12:09:41.486Z,5.47
2019-04-14T12:12:11.548Z,4.90
2019-04-14T12:14:41.346Z,4.97
2019-04-14T12:17:11.090Z,5.22
2019-04-14T12:19:40.906Z,5.03
2019-04-14T12:22:10.609Z,4.50
2019-04-14T12:24:40.303Z,4.85
2019-04-14T12:27:10.138Z,4.58
2019-04-14T12:29:41.122Z,5.03
2019-04-14T12:32:11.031Z,5.15
2019-04-14T12:34:40.555Z,4.90
2019-04-14T12:37:10.109Z,4.80
2019-04-14T12:39:39.924Z,5.42
2019-04-14T12:42:37.797Z,5.30
2019-04-14T12:45:30.094Z,6.12
2019-04-14T12:48:24.984Z,5.30
2019-04-14T12:50:58.251Z,5.50
2019-04-14T12:53:27.816Z,5.20
2019-04-14T12:55:57.425Z,5.87
2019-04-14T12:58:51.915Z,5.47
2019-04-14T13:01:22.479Z,5.22
2019-04-14T13:03:52.300Z,5.78
2019-04-14T13:06:22.011Z,5.28
2019-04-14T13:08:51.661Z,6.10
2019-04-14T13:11:21.715Z,4.72
2019-04-14T13:13:51.886Z,5.08
2019-04-14T13:16:21.755Z,5.00
2019-04-14T13:18:51.415Z,5.12
2019-04-14T13:21:21.366Z,4.78
2019-04-14T13:23:51.161Z,4.97
2019-04-14T13:26:21.162Z,5.33
2019-04-14T13:28:51.103Z,5.15
2019-04-14T13:31:20.862Z,5.42
2019-04-14T13:33:50.790Z,5.15
2019-04-14T13:36:21.238Z,4.97
2019-04-14T13:38:50.902Z,5.12
2019-04-14T13:41:20.902Z,4.42
2019-04-14T13:43:50.571Z,4.50
2019-04-14T13:46:20.365Z,4.83
2019-04-14T13:48:50.217Z,4.37
2019-04-14T13:51:19.989Z,4.78
2019-04-14T13:53:49.768Z,4.70
2019-04-14T13:56:19.640Z,5.40
2019-04-14T13:58:49.693Z,4.62
2019-04-14T14:01:19.490Z,5.47
2019-04-14T14:03:49.289Z,4.90
2019-04-14T14:06:19.010Z,4.95
2019-04-14T14:08:48.743Z,5.03
2019-04-14T14:11:28.400Z,4.67
2019-04-14T14:14:03.452Z,5.35
2019-04-14T14:16:48.670Z,5.40
2019-04-14T14:19:40.188Z,5.10
2019-04-14T14:22:31.980Z,5.25
2019-04-14T14:25:09.585Z,5.58
2019-04-14T14:27:39.418Z,4.50
2019-04-14T14:30:10.120Z,5.00
2019-04-14T14:32:39.818Z,5.15
2019-04-14T14:35:10.045Z,4.80
2019-04-14T14:37:39.808Z,4.90
2019-04-14T14:40:09.567Z,4.83
2019-04-14T14:42:39.440Z,4.87
2019-04-14T14:45:27.204Z,4.35
2019-04-14T14:50:53.421Z,4.67
2019-04-14T14:53:23.016Z,5.30
2019-04-14T14:55:53.018Z,4.85
2019-04-14T14:58:22.975Z,4.50
2019-04-14T15:00:52.674Z,4.67
2019-04-14T15:03:22.573Z,5.47
2019-04-14T15:05:52.604Z,4.85
2019-04-14T15:08:22.753Z,5.47
2019-04-14T15:10:52.427Z,5.65
2019-04-14T15:13:22.408Z,5.35
2019-04-14T15:15:52.135Z,5.60
2019-04-14T15:18:40.706Z,5.40
2019-04-14T15:21:10.358Z,5.35
2019-04-14T15:23:40.151Z,5.37
2019-04-14T15:26:09.985Z,5.95
2019-04-14T15:28:39.904Z,5.40
2019-04-14T15:31:09.550Z,5.55
2019-04-14T15:33:39.203Z,5.65
2019-04-14T15:36:09.288Z,4.85
2019-04-14T15:38:38.857Z,5.70
2019-04-14T15:41:08.379Z,5.83
2019-04-14T15:43:38.213Z,5.55
2019-04-14T15:46:07.901Z,5.53
2019-04-14T15:48:37.978Z,6.03
2019-04-14T15:51:07.796Z,6.00
2019-04-14T15:53:38.511Z,5.50
2019-04-14T15:56:09.579Z,5.78
2019-04-14T15:59:07.102Z,5.72
2019-04-14T16:01:52.784Z,5.47
2019-04-14T16:04:47.247Z,4.80
2019-04-14T16:07:51.169Z,4.72
2019-04-14T16:10:31.443Z,7.10
2019-04-14T16:13:09.223Z,6.28
2019-04-14T16:16:13.103Z,5.80
2019-04-14T16:18:56.361Z,5.60
2019-04-14T16:21:26.297Z,5.28
2019-04-14T16:23:56.225Z,6.00
2019-04-14T16:26:34.239Z,6.10
2019-04-14T16:32:05.419Z,6.42
2019-04-14T16:34:56.468Z,6.62
2019-04-14T16:37:26.319Z,6.58
2019-04-14T16:39:55.877Z,6.97
2019-04-14T16:42:25.744Z,7.58
2019-04-14T16:44:55.597Z,7.03
2019-04-14T16:47:25.549Z,6.45
2019-04-14T16:49:55.431Z,6.95
2019-04-14T16:52:50.123Z,6.92
2019-04-14T16:55:23.114Z,6.67
2019-04-14T16:58:20.772Z,7.42
2019-04-14T17:03:27.480Z,7.75
2019-04-14T17:05:57.189Z,8.55
2019-04-14T17:08:27.055Z,7.45
2019-04-14T17:10:56.524Z,8.88
2019-04-14T17:13:27.803Z,8.30
2019-04-14T17:16:15.306Z,8.28
2019-04-14T17:18:52.625Z,8.43
2019-04-14T17:21:40.952Z,9.40
2019-04-14T17:24:41.625Z,8.70
2019-04-14T17:27:28.717Z,8.48
2019-04-14T17:30:21.286Z,8.80
2019-04-14T17:32:59.806Z,8.53
2019-04-14T17:35:50.527Z,8.88
2019-04-14T17:38:38.500Z,9.60
2019-04-14T17:41:31.777Z,9.63
2019-04-14T17:44:20.711Z,9.80
2019-04-14T17:47:15.307Z,9.53
2019-04-14T17:50:03.848Z,10.15
2019-04-14T17:53:01.339Z,9.70
2019-04-14T17:56:07.915Z,9.00
2019-04-14T17:58:56.702Z,9.60
2019-04-14T18:02:00.423Z,9.15
2019-04-14T18:04:38.079Z,9.63
2019-04-14T18:07:21.281Z,9.30
2019-04-14T18:10:00.516Z,8.60
2019-04-14T18:13:04.021Z,9.48
2019-04-14T18:15:55.462Z,8.63
2019-04-14T18:18:49.932Z,8.48
2019-04-14T18:21:19.644Z,9.90
2019-04-14T18:23:49.511Z,9.15
2019-04-14T18:26:19.202Z,9.03
2019-04-14T18:29:16.949Z,8.95
2019-04-14T18:34:48.438Z,9.00
2019-04-14T18:37:43.101Z,9.45
2019-04-14T18:40:16.953Z,9.23
2019-04-14T18:43:06.804Z,9.75
2019-04-14T18:45:55.125Z,10.13
2019-04-14T18:48:43.594Z,9.63
2019-04-14T18:51:30.807Z,10.08
2019-04-14T18:54:16.110Z,10.38
2019-04-14T18:56:52.286Z,9.55
2019-04-14T18:59:44.331Z,10.45
2019-04-14T19:02:15.757Z,10.10
2019-04-14T19:04:45.908Z,9.83
2019-04-14T19:07:15.932Z,10.68
2019-04-14T19:09:45.844Z,10.68
2019-04-14T19:12:46.270Z,9.03
2019-04-14T19:15:33.263Z,10.60
2019-04-14T19:18:31.227Z,11.10
2019-04-14T19:21:10.000Z,10.43
2019-04-14T19:23:39.841Z,10.70
2019-04-14T19:26:09.755Z,11.35
2019-04-14T19:28:39.527Z,12.07
2019-04-14T19:31:09.198Z,11.80
2019-04-14T19:33:38.865Z,11.63
2019-04-14T19:36:08.711Z,12.05
2019-04-14T19:38:38.359Z,11.95
2019-04-14T19:41:08.119Z,12.73
2019-04-14T19:43:37.893Z,12.40
2019-04-14T19:46:07.684Z,11.28
2019-04-14T19:48:37.493Z,11.90
2019-04-14T19:51:07.436Z,11.25
2019-04-14T19:53:36.997Z,12.28
2019-04-14T19:56:06.827Z,12.20
2019-04-14T19:58:36.320Z,14.78
2019-04-14T20:01:07.324Z,12.35
2019-04-14T20:03:37.128Z,12.53
2019-04-14T20:06:07.056Z,11.35
2019-04-14T20:08:37.116Z,12.15
2019-04-14T20:11:06.996Z,12.30
2019-04-14T20:13:42.587Z,12.35
2019-04-14T20:16:29.840Z,11.35
2019-04-14T20:19:18.406Z,12.88
2019-04-14T20:22:19.160Z,12.60
2019-04-14T20:24:55.295Z,13.43
2019-04-14T20:27:32.817Z,14.35
2019-04-14T20:30:07.114Z,13.88
2019-04-14T20:32:38.258Z,13.53
2019-04-14T20:35:08.330Z,13.58
2019-04-14T20:37:37.967Z,13.50
2019-04-14T20:40:08.216Z,14.25
2019-04-14T20:42:38.296Z,13.45
2019-04-14T20:45:08.453Z,13.58
2019-04-14T20:47:57.111Z,12.68
2019-04-14T20:50:26.880Z,13.32
2019-04-14T20:52:56.755Z,13.98
2019-04-14T20:55:26.449Z,14.93
2019-04-14T20:57:56.216Z,14.95
2019-04-14T21:00:26.842Z,15.85
2019-04-14T21:03:20.276Z,15.30
2019-04-14T21:06:11.723Z,15.23
2019-04-14T21:08:59.139Z,15.18
2019-04-14T21:11:43.780Z,15.43
2019-04-14T21:14:47.538Z,15.20
2019-04-14T21:17:23.604Z,17.45
2019-04-14T21:20:15.394Z,16.12
2019-04-14T21:23:03.622Z,16.85
2019-04-14T21:26:00.129Z,15.93
2019-04-14T21:28:40.602Z,16.10
2019-04-14T21:31:29.433Z,16.93
2019-04-14T21:34:09.614Z,15.80
2019-04-14T21:37:13.426Z,15.90
2019-04-14T21:39:48.406Z,16.12
2019-04-14T21:42:18.484Z,16.73
2019-04-14T21:44:47.968Z,17.67
2019-04-14T21:47:17.744Z,16.80
2019-04-14T21:49:47.366Z,17.75
2019-04-14T21:52:44.655Z,17.05
2019-04-14T21:55:14.929Z,17.02
2019-04-14T21:58:03.232Z,17.62
2019-04-14T22:01:32.113Z,16.97
2019-04-14T22:04:13.757Z,17.17
2019-04-14T22:06:43.899Z,17.92
2019-04-14T22:09:33.823Z,18.10
2019-04-14T22:12:04.979Z,18.37
2019-04-14T22:14:34.695Z,17.67
2019-04-14T22:17:05.082Z,17.82
2019-04-14T22:19:34.543Z,18.42
2019-04-14T22:22:04.032Z,18.02
2019-04-14T22:24:33.519Z,18.42
2019-04-14T22:27:03.171Z,18.98
2019-04-14T22:29:32.903Z,19.23
2019-04-14T22:32:02.873Z,18.77
2019-04-14T22:34:33.971Z,19.10
2019-04-14T22:37:03.941Z,19.17
2019-04-14T22:39:33.598Z,19.07
2019-04-14T22:42:03.604Z,18.12
2019-04-14T22:44:33.851Z,18.37
2019-04-14T22:47:03.797Z,18.17
2019-04-14T22:49:33.626Z,18.25
2019-04-14T22:52:03.465Z,18.90
2019-04-14T22:54:33.212Z,20.00
2019-04-14T22:57:03.234Z,19.67
2019-04-14T22:59:33.506Z,19.55
2019-04-14T23:02:09.174Z,19.45
2019-04-14T23:04:56.956Z,19.42
2019-04-14T23:10:45.533Z,19.65
2019-04-14T23:13:40.419Z,19.80
2019-04-14T23:16:35.044Z,19.67
2019-04-14T23:19:12.301Z,18.95
2019-04-14T23:21:57.046Z,19.23
2019-04-14T23:24:31.134Z,18.95
2019-04-14T23:27:01.205Z,19.98
2019-04-14T23:29:30.974Z,19.77
2019-04-14T23:32:00.645Z,18.98
2019-04-14T23:34:30.324Z,19.25
2019-04-14T23:37:00.238Z,19.30
2019-04-14T23:39:30.332Z,19.87
2019-04-14T23:42:00.586Z,20.00
2019-04-14T23:44:30.235Z,20.17
2019-04-14T23:47:00.021Z,20.92
2019-04-14T23:49:29.599Z,20.10
2019-04-14T23:51:59.160Z,22.52
2019-04-14T23:54:29.093Z,22.42
2019-04-14T23:57:05.298Z,22.25
2019-04-14T23:59:30.802Z,23.15
